sensor_id;sensor_type;location;lat;lon;timestamp;P1;durP1;ratioP1;P2;durP2;ratioP2
75437;SDS011;64015;49.392;15.582;2023-08-21T00:01:05;12.25;;;8.70;;
75437;SDS011;64015;49.392;15.582;2023-08-21T00:03:39;13.90;;;8.48;;
75437;SDS011;64015;49.392;15.582;2023-08-21T00:06:06;12.13;;;8.50;;
75437;SDS011;64015;49.392;15.582;2023-08-21T00:08:32;11.50;;;8.57;;
75437;SDS011;64015;49.392;15.582;2023-08-21T00:10:59;13.95;;;8.65;;
75437;SDS011;64015;49.392;15.582;2023-08-21T00:13:24;16.73;;;9.43;;
75437;SDS011;64015;49.392;15.582;2023-08-21T00:15:50;10.75;;;8.52;;
75437;SDS011;64015;49.392;15.582;2023-08-21T00:18:15;10.43;;;7.95;;
75437;SDS011;64015;49.392;15.582;2023-08-21T00:20:41;12.57;;;8.85;;
75437;SDS011;64015;49.392;15.582;2023-08-21T00:23:08;11.75;;;7.75;;
75437;SDS011;64015;49.392;15.582;2023-08-21T00:25:34;12.75;;;8.50;;
75437;SDS011;64015;49.392;15.582;2023-08-21T00:28:00;11.48;;;8.07;;
75437;SDS011;64015;49.392;15.582;2023-08-21T00:30:26;11.50;;;8.88;;
75437;SDS011;64015;49.392;15.582;2023-08-21T00:32:52;12.82;;;8.50;;
75437;SDS011;64015;49.392;15.582;2023-08-21T00:35:17;11.98;;;7.75;;
75437;SDS011;64015;49.392;15.582;2023-08-21T00:37:43;11.82;;;7.95;;
75437;SDS011;64015;49.392;15.582;2023-08-21T00:40:10;12.32;;;8.55;;
75437;SDS011;64015;49.392;15.582;2023-08-21T00:42:36;12.75;;;7.78;;
75437;SDS011;64015;49.392;15.582;2023-08-21T00:45:02;11.70;;;8.68;;
75437;SDS011;64015;49.392;15.582;2023-08-21T00:47:28;12.88;;;8.68;;
75437;SDS011;64015;49.392;15.582;2023-08-21T00:49:54;12.80;;;8.32;;
75437;SDS011;64015;49.392;15.582;2023-08-21T00:52:20;15.63;;;8.73;;
75437;SDS011;64015;49.392;15.582;2023-08-21T00:54:46;11.52;;;8.07;;
75437;SDS011;64015;49.392;15.582;2023-08-21T00:57:12;10.90;;;8.82;;
75437;SDS011;64015;49.392;15.582;2023-08-21T00:59:39;11.73;;;9.25;;
75437;SDS011;64015;49.392;15.582;2023-08-21T01:02:05;13.55;;;8.93;;
75437;SDS011;64015;49.392;15.582;2023-08-21T01:04:31;12.10;;;8.57;;
75437;SDS011;64015;49.392;15.582;2023-08-21T01:06:57;9.75;;;8.30;;
75437;SDS011;64015;49.392;15.582;2023-08-21T01:17:22;10.93;;;8.45;;
75437;SDS011;64015;49.392;15.582;2023-08-21T01:19:49;12.95;;;8.88;;
75437;SDS011;64015;49.392;15.582;2023-08-21T01:22:15;11.30;;;8.63;;
75437;SDS011;64015;49.392;15.582;2023-08-21T01:24:42;10.27;;;7.97;;
75437;SDS011;64015;49.392;15.582;2023-08-21T01:27:09;11.27;;;8.93;;
75437;SDS011;64015;49.392;15.582;2023-08-21T01:29:37;9.20;;;7.78;;
75437;SDS011;64015;49.392;15.582;2023-08-21T01:34:44;12.75;;;8.57;;
75437;SDS011;64015;49.392;15.582;2023-08-21T01:37:12;10.20;;;8.20;;
75437;SDS011;64015;49.392;15.582;2023-08-21T01:42:04;12.07;;;8.93;;
75437;SDS011;64015;49.392;15.582;2023-08-21T01:44:30;10.43;;;8.15;;
75437;SDS011;64015;49.392;15.582;2023-08-21T01:46:56;11.85;;;8.50;;
75437;SDS011;64015;49.392;15.582;2023-08-21T01:49:21;10.27;;;8.25;;
75437;SDS011;64015;49.392;15.582;2023-08-21T01:51:47;11.80;;;8.15;;
75437;SDS011;64015;49.392;15.582;2023-08-21T01:54:13;11.85;;;8.18;;
75437;SDS011;64015;49.392;15.582;2023-08-21T01:56:38;10.40;;;8.18;;
75437;SDS011;64015;49.392;15.582;2023-08-21T01:59:04;12.48;;;8.80;;
75437;SDS011;64015;49.392;15.582;2023-08-21T02:01:31;10.98;;;8.75;;
75437;SDS011;64015;49.392;15.582;2023-08-21T02:03:57;15.45;;;9.20;;
75437;SDS011;64015;49.392;15.582;2023-08-21T02:06:23;13.38;;;8.98;;
75437;SDS011;64015;49.392;15.582;2023-08-21T02:08:48;12.35;;;8.75;;
75437;SDS011;64015;49.392;15.582;2023-08-21T02:11:14;10.48;;;8.90;;
75437;SDS011;64015;49.392;15.582;2023-08-21T02:13:40;11.73;;;8.68;;
75437;SDS011;64015;49.392;15.582;2023-08-21T02:16:05;10.10;;;7.63;;
75437;SDS011;64015;49.392;15.582;2023-08-21T02:18:31;12.73;;;8.73;;
75437;SDS011;64015;49.392;15.582;2023-08-21T02:20:57;11.77;;;7.95;;
75437;SDS011;64015;49.392;15.582;2023-08-21T02:23:23;12.63;;;8.00;;
75437;SDS011;64015;49.392;15.582;2023-08-21T02:25:51;12.73;;;8.95;;
75437;SDS011;64015;49.392;15.582;2023-08-21T02:28:17;11.77;;;8.50;;
75437;SDS011;64015;49.392;15.582;2023-08-21T02:30:42;12.57;;;8.52;;
75437;SDS011;64015;49.392;15.582;2023-08-21T02:33:08;11.50;;;8.25;;
75437;SDS011;64015;49.392;15.582;2023-08-21T02:35:34;12.43;;;8.07;;
75437;SDS011;64015;49.392;15.582;2023-08-21T02:38:00;10.48;;;8.80;;
75437;SDS011;64015;49.392;15.582;2023-08-21T02:40:25;12.35;;;9.10;;
75437;SDS011;64015;49.392;15.582;2023-08-21T02:42:51;12.65;;;8.35;;
75437;SDS011;64015;49.392;15.582;2023-08-21T02:45:17;12.50;;;8.55;;
75437;SDS011;64015;49.392;15.582;2023-08-21T02:47:44;11.27;;;8.77;;
75437;SDS011;64015;49.392;15.582;2023-08-21T02:50:10;14.05;;;8.52;;
75437;SDS011;64015;49.392;15.582;2023-08-21T02:52:36;11.68;;;8.07;;
75437;SDS011;64015;49.392;15.582;2023-08-21T02:55:02;11.32;;;8.45;;
75437;SDS011;64015;49.392;15.582;2023-08-21T02:57:30;11.50;;;8.52;;
75437;SDS011;64015;49.392;15.582;2023-08-21T02:59:55;12.18;;;8.77;;
75437;SDS011;64015;49.392;15.582;2023-08-21T03:02:22;11.23;;;7.82;;
75437;SDS011;64015;49.392;15.582;2023-08-21T03:04:48;13.25;;;8.93;;
75437;SDS011;64015;49.392;15.582;2023-08-21T03:07:14;12.35;;;8.35;;
75437;SDS011;64015;49.392;15.582;2023-08-21T03:09:41;12.57;;;8.25;;
75437;SDS011;64015;49.392;15.582;2023-08-21T03:12:09;12.35;;;9.20;;
75437;SDS011;64015;49.392;15.582;2023-08-21T03:14:34;12.70;;;8.93;;
75437;SDS011;64015;49.392;15.582;2023-08-21T03:17:00;10.57;;;7.82;;
75437;SDS011;64015;49.392;15.582;2023-08-21T03:19:26;11.73;;;8.77;;
75437;SDS011;64015;49.392;15.582;2023-08-21T03:21:52;13.65;;;9.35;;
75437;SDS011;64015;49.392;15.582;2023-08-21T03:24:17;12.93;;;8.88;;
75437;SDS011;64015;49.392;15.582;2023-08-21T03:26:46;13.85;;;8.52;;
75437;SDS011;64015;49.392;15.582;2023-08-21T03:29:11;12.68;;;8.13;;
75437;SDS011;64015;49.392;15.582;2023-08-21T03:31:37;12.90;;;8.63;;
75437;SDS011;64015;49.392;15.582;2023-08-21T03:34:02;12.38;;;8.48;;
75437;SDS011;64015;49.392;15.582;2023-08-21T03:36:28;11.32;;;8.52;;
75437;SDS011;64015;49.392;15.582;2023-08-21T03:39:00;13.15;;;8.52;;
75437;SDS011;64015;49.392;15.582;2023-08-21T03:41:26;12.02;;;8.05;;
75437;SDS011;64015;49.392;15.582;2023-08-21T03:43:53;12.63;;;8.27;;
75437;SDS011;64015;49.392;15.582;2023-08-21T03:46:19;13.45;;;8.77;;
75437;SDS011;64015;49.392;15.582;2023-08-21T03:48:45;11.50;;;8.13;;
75437;SDS011;64015;49.392;15.582;2023-08-21T03:51:10;11.85;;;8.80;;
75437;SDS011;64015;49.392;15.582;2023-08-21T03:53:36;14.98;;;9.35;;
75437;SDS011;64015;49.392;15.582;2023-08-21T03:56:02;11.95;;;8.50;;
75437;SDS011;64015;49.392;15.582;2023-08-21T03:58:29;10.80;;;7.80;;
75437;SDS011;64015;49.392;15.582;2023-08-21T04:00:55;14.48;;;8.68;;
75437;SDS011;64015;49.392;15.582;2023-08-21T04:03:20;11.73;;;8.07;;
75437;SDS011;64015;49.392;15.582;2023-08-21T04:05:46;12.15;;;7.97;;
75437;SDS011;64015;49.392;15.582;2023-08-21T04:08:12;10.77;;;8.05;;
75437;SDS011;64015;49.392;15.582;2023-08-21T04:10:38;13.25;;;8.85;;
75437;SDS011;64015;49.392;15.582;2023-08-21T04:13:07;11.07;;;8.15;;
75437;SDS011;64015;49.392;15.582;2023-08-21T04:15:33;9.68;;;7.15;;
75437;SDS011;64015;49.392;15.582;2023-08-21T04:18:00;10.95;;;8.25;;
75437;SDS011;64015;49.392;15.582;2023-08-21T04:20:26;13.40;;;8.00;;
75437;SDS011;64015;49.392;15.582;2023-08-21T04:22:51;9.52;;;7.55;;
75437;SDS011;64015;49.392;15.582;2023-08-21T04:25:17;10.55;;;8.05;;
75437;SDS011;64015;49.392;15.582;2023-08-21T04:27:43;13.57;;;9.07;;
75437;SDS011;64015;49.392;15.582;2023-08-21T04:30:10;12.88;;;9.13;;
75437;SDS011;64015;49.392;15.582;2023-08-21T04:32:36;14.15;;;9.25;;
75437;SDS011;64015;49.392;15.582;2023-08-21T04:35:02;13.20;;;9.32;;
75437;SDS011;64015;49.392;15.582;2023-08-21T04:37:28;13.30;;;8.65;;
75437;SDS011;64015;49.392;15.582;2023-08-21T04:39:55;10.85;;;8.02;;
75437;SDS011;64015;49.392;15.582;2023-08-21T04:42:22;13.90;;;8.90;;
75437;SDS011;64015;49.392;15.582;2023-08-21T04:44:48;17.05;;;9.68;;
75437;SDS011;64015;49.392;15.582;2023-08-21T04:47:20;14.02;;;8.82;;
75437;SDS011;64015;49.392;15.582;2023-08-21T04:49:51;10.50;;;8.18;;
75437;SDS011;64015;49.392;15.582;2023-08-21T04:52:18;13.90;;;8.38;;
75437;SDS011;64015;49.392;15.582;2023-08-21T04:57:10;12.63;;;9.48;;
75437;SDS011;64015;49.392;15.582;2023-08-21T04:59:35;11.50;;;8.90;;
75437;SDS011;64015;49.392;15.582;2023-08-21T05:02:01;13.35;;;8.93;;
75437;SDS011;64015;49.392;15.582;2023-08-21T05:04:28;12.45;;;9.98;;
75437;SDS011;64015;49.392;15.582;2023-08-21T05:06:53;13.57;;;9.68;;
75437;SDS011;64015;49.392;15.582;2023-08-21T05:09:19;13.85;;;9.18;;
75437;SDS011;64015;49.392;15.582;2023-08-21T05:11:45;13.13;;;9.65;;
75437;SDS011;64015;49.392;15.582;2023-08-21T05:14:11;13.77;;;9.10;;
75437;SDS011;64015;49.392;15.582;2023-08-21T05:16:36;15.63;;;9.35;;
75437;SDS011;64015;49.392;15.582;2023-08-21T05:19:02;12.63;;;9.30;;
75437;SDS011;64015;49.392;15.582;2023-08-21T05:21:28;12.93;;;9.05;;
75437;SDS011;64015;49.392;15.582;2023-08-21T05:23:53;14.65;;;10.23;;
75437;SDS011;64015;49.392;15.582;2023-08-21T05:26:19;12.50;;;8.90;;
75437;SDS011;64015;49.392;15.582;2023-08-21T05:28:45;15.45;;;10.40;;
75437;SDS011;64015;49.392;15.582;2023-08-21T05:31:11;14.52;;;9.93;;
75437;SDS011;64015;49.392;15.582;2023-08-21T05:33:36;14.60;;;10.13;;
75437;SDS011;64015;49.392;15.582;2023-08-21T05:36:02;14.73;;;10.43;;
75437;SDS011;64015;49.392;15.582;2023-08-21T05:38:28;12.80;;;10.45;;
75437;SDS011;64015;49.392;15.582;2023-08-21T05:40:54;16.92;;;10.77;;
75437;SDS011;64015;49.392;15.582;2023-08-21T05:43:20;15.07;;;9.80;;
75437;SDS011;64015;49.392;15.582;2023-08-21T05:45:45;14.60;;;10.65;;
75437;SDS011;64015;49.392;15.582;2023-08-21T05:48:11;13.07;;;10.23;;
75437;SDS011;64015;49.392;15.582;2023-08-21T05:50:36;16.70;;;10.15;;
75437;SDS011;64015;49.392;15.582;2023-08-21T05:53:03;15.90;;;11.05;;
75437;SDS011;64015;49.392;15.582;2023-08-21T05:55:29;15.10;;;10.77;;
75437;SDS011;64015;49.392;15.582;2023-08-21T05:57:55;15.68;;;10.93;;
75437;SDS011;64015;49.392;15.582;2023-08-21T06:00:20;13.88;;;10.70;;
75437;SDS011;64015;49.392;15.582;2023-08-21T06:02:46;14.00;;;10.35;;
75437;SDS011;64015;49.392;15.582;2023-08-21T06:05:12;17.35;;;10.15;;
75437;SDS011;64015;49.392;15.582;2023-08-21T06:07:38;15.50;;;10.25;;
75437;SDS011;64015;49.392;15.582;2023-08-21T06:10:06;16.25;;;10.77;;
75437;SDS011;64015;49.392;15.582;2023-08-21T06:12:32;13.77;;;10.10;;
75437;SDS011;64015;49.392;15.582;2023-08-21T06:14:58;12.20;;;10.13;;
75437;SDS011;64015;49.392;15.582;2023-08-21T06:17:24;13.13;;;9.75;;
75437;SDS011;64015;49.392;15.582;2023-08-21T06:19:49;12.20;;;9.90;;
75437;SDS011;64015;49.392;15.582;2023-08-21T06:22:15;12.55;;;9.38;;
75437;SDS011;64015;49.392;15.582;2023-08-21T06:24:41;13.30;;;9.35;;
75437;SDS011;64015;49.392;15.582;2023-08-21T06:27:07;15.07;;;9.23;;
75437;SDS011;64015;49.392;15.582;2023-08-21T06:29:32;13.23;;;9.55;;
75437;SDS011;64015;49.392;15.582;2023-08-21T06:31:58;11.13;;;9.02;;
75437;SDS011;64015;49.392;15.582;2023-08-21T06:34:24;11.05;;;9.27;;
75437;SDS011;64015;49.392;15.582;2023-08-21T06:36:49;12.90;;;9.13;;
75437;SDS011;64015;49.392;15.582;2023-08-21T06:39:15;11.40;;;8.82;;
75437;SDS011;64015;49.392;15.582;2023-08-21T06:41:41;12.07;;;9.30;;
75437;SDS011;64015;49.392;15.582;2023-08-21T06:44:06;11.57;;;8.57;;
75437;SDS011;64015;49.392;15.582;2023-08-21T06:46:33;12.07;;;9.07;;
75437;SDS011;64015;49.392;15.582;2023-08-21T06:48:59;10.02;;;8.63;;
75437;SDS011;64015;49.392;15.582;2023-08-21T06:51:25;13.50;;;9.35;;
75437;SDS011;64015;49.392;15.582;2023-08-21T06:53:50;10.88;;;9.25;;
75437;SDS011;64015;49.392;15.582;2023-08-21T06:56:16;13.68;;;9.15;;
75437;SDS011;64015;49.392;15.582;2023-08-21T06:58:42;12.13;;;8.70;;
75437;SDS011;64015;49.392;15.582;2023-08-21T07:01:08;11.80;;;9.32;;
75437;SDS011;64015;49.392;15.582;2023-08-21T07:03:33;12.52;;;8.98;;
75437;SDS011;64015;49.392;15.582;2023-08-21T07:05:59;9.95;;;7.88;;
75437;SDS011;64015;49.392;15.582;2023-08-21T07:08:25;12.10;;;9.05;;
75437;SDS011;64015;49.392;15.582;2023-08-21T07:10:52;10.13;;;8.48;;
75437;SDS011;64015;49.392;15.582;2023-08-21T07:13:18;10.07;;;8.68;;
75437;SDS011;64015;49.392;15.582;2023-08-21T07:15:45;11.60;;;9.13;;
75437;SDS011;64015;49.392;15.582;2023-08-21T07:20:36;12.00;;;8.02;;
75437;SDS011;64015;49.392;15.582;2023-08-21T07:23:02;11.38;;;9.00;;
75437;SDS011;64015;49.392;15.582;2023-08-21T07:25:28;13.02;;;8.30;;
75437;SDS011;64015;49.392;15.582;2023-08-21T07:27:54;10.13;;;8.25;;
75437;SDS011;64015;49.392;15.582;2023-08-21T07:30:21;11.75;;;8.75;;
75437;SDS011;64015;49.392;15.582;2023-08-21T07:32:49;15.88;;;8.88;;
75437;SDS011;64015;49.392;15.582;2023-08-21T07:35:15;10.95;;;7.63;;
75437;SDS011;64015;49.392;15.582;2023-08-21T07:37:44;9.98;;;6.93;;
75437;SDS011;64015;49.392;15.582;2023-08-21T07:40:11;8.95;;;6.93;;
75437;SDS011;64015;49.392;15.582;2023-08-21T07:42:37;9.40;;;7.38;;
75437;SDS011;64015;49.392;15.582;2023-08-21T07:45:03;7.53;;;6.13;;
75437;SDS011;64015;49.392;15.582;2023-08-21T07:47:29;8.93;;;6.28;;
75437;SDS011;64015;49.392;15.582;2023-08-21T07:49:57;9.80;;;7.13;;
75437;SDS011;64015;49.392;15.582;2023-08-21T07:52:23;8.43;;;6.32;;
75437;SDS011;64015;49.392;15.582;2023-08-21T07:54:52;7.07;;;6.35;;
75437;SDS011;64015;49.392;15.582;2023-08-21T07:57:20;7.97;;;6.38;;
75437;SDS011;64015;49.392;15.582;2023-08-21T07:59:46;9.05;;;6.88;;
75437;SDS011;64015;49.392;15.582;2023-08-21T08:02:11;10.23;;;6.75;;
75437;SDS011;64015;49.392;15.582;2023-08-21T08:04:38;7.93;;;6.97;;
75437;SDS011;64015;49.392;15.582;2023-08-21T08:07:04;7.32;;;6.45;;
75437;SDS011;64015;49.392;15.582;2023-08-21T08:09:29;7.85;;;6.50;;
75437;SDS011;64015;49.392;15.582;2023-08-21T08:11:56;8.73;;;6.90;;
75437;SDS011;64015;49.392;15.582;2023-08-21T08:14:21;8.95;;;6.75;;
75437;SDS011;64015;49.392;15.582;2023-08-21T08:16:47;9.60;;;7.38;;
75437;SDS011;64015;49.392;15.582;2023-08-21T08:19:13;9.77;;;7.22;;
75437;SDS011;64015;49.392;15.582;2023-08-21T08:21:40;10.57;;;6.70;;
75437;SDS011;64015;49.392;15.582;2023-08-21T08:24:06;8.13;;;7.15;;
75437;SDS011;64015;49.392;15.582;2023-08-21T08:26:32;7.68;;;6.65;;
75437;SDS011;64015;49.392;15.582;2023-08-21T08:28:58;9.57;;;6.78;;
75437;SDS011;64015;49.392;15.582;2023-08-21T08:31:24;10.48;;;7.47;;
75437;SDS011;64015;49.392;15.582;2023-08-21T08:33:50;8.70;;;6.63;;
75437;SDS011;64015;49.392;15.582;2023-08-21T08:36:16;8.98;;;7.05;;
75437;SDS011;64015;49.392;15.582;2023-08-21T08:38:42;9.65;;;6.80;;
75437;SDS011;64015;49.392;15.582;2023-08-21T08:43:42;11.98;;;7.57;;
75437;SDS011;64015;49.392;15.582;2023-08-21T08:46:08;7.57;;;6.80;;
75437;SDS011;64015;49.392;15.582;2023-08-21T08:51:01;8.32;;;6.93;;
75437;SDS011;64015;49.392;15.582;2023-08-21T08:53:29;8.57;;;7.63;;
75437;SDS011;64015;49.392;15.582;2023-08-21T08:55:55;11.23;;;7.50;;
75437;SDS011;64015;49.392;15.582;2023-08-21T08:58:22;7.57;;;6.75;;
75437;SDS011;64015;49.392;15.582;2023-08-21T09:00:48;8.85;;;7.93;;
75437;SDS011;64015;49.392;15.582;2023-08-21T09:03:13;8.68;;;7.03;;
75437;SDS011;64015;49.392;15.582;2023-08-21T09:05:41;8.23;;;7.43;;
75437;SDS011;64015;49.392;15.582;2023-08-21T09:10:40;9.07;;;7.43;;
75437;SDS011;64015;49.392;15.582;2023-08-21T09:13:11;10.77;;;6.53;;
75437;SDS011;64015;49.392;15.582;2023-08-21T09:15:38;8.02;;;6.28;;
75437;SDS011;64015;49.392;15.582;2023-08-21T09:18:03;10.02;;;7.15;;
75437;SDS011;64015;49.392;15.582;2023-08-21T09:20:35;10.40;;;7.53;;
75437;SDS011;64015;49.392;15.582;2023-08-21T09:23:01;8.30;;;7.40;;
75437;SDS011;64015;49.392;15.582;2023-08-21T09:25:33;7.82;;;7.13;;
75437;SDS011;64015;49.392;15.582;2023-08-21T09:28:00;7.57;;;6.88;;
75437;SDS011;64015;49.392;15.582;2023-08-21T09:30:25;9.98;;;7.05;;
75437;SDS011;64015;49.392;15.582;2023-08-21T09:32:55;10.48;;;7.25;;
75437;SDS011;64015;49.392;15.582;2023-08-21T09:35:22;7.68;;;6.32;;
75437;SDS011;64015;49.392;15.582;2023-08-21T09:37:49;8.18;;;6.32;;
75437;SDS011;64015;49.392;15.582;2023-08-21T09:40:18;9.23;;;6.93;;
75437;SDS011;64015;49.392;15.582;2023-08-21T09:42:45;8.57;;;6.63;;
75437;SDS011;64015;49.392;15.582;2023-08-21T09:45:10;8.02;;;5.88;;
75437;SDS011;64015;49.392;15.582;2023-08-21T09:47:37;6.90;;;6.20;;
75437;SDS011;64015;49.392;15.582;2023-08-21T09:50:06;7.20;;;6.50;;
75437;SDS011;64015;49.392;15.582;2023-08-21T09:52:32;10.15;;;6.25;;
75437;SDS011;64015;49.392;15.582;2023-08-21T09:57:24;6.90;;;6.03;;
75437;SDS011;64015;49.392;15.582;2023-08-21T09:59:53;10.50;;;6.38;;
75437;SDS011;64015;49.392;15.582;2023-08-21T10:02:20;8.52;;;6.18;;
75437;SDS011;64015;49.392;15.582;2023-08-21T10:04:48;6.93;;;5.97;;
75437;SDS011;64015;49.392;15.582;2023-08-21T10:07:14;9.35;;;6.05;;
75437;SDS011;64015;49.392;15.582;2023-08-21T10:09:42;7.65;;;6.47;;
75437;SDS011;64015;49.392;15.582;2023-08-21T10:12:08;8.40;;;6.28;;
75437;SDS011;64015;49.392;15.582;2023-08-21T10:14:35;8.95;;;6.57;;
75437;SDS011;64015;49.392;15.582;2023-08-21T10:17:01;10.15;;;6.70;;
75437;SDS011;64015;49.392;15.582;2023-08-21T10:19:31;8.82;;;7.18;;
75437;SDS011;64015;49.392;15.582;2023-08-21T10:21:57;6.93;;;5.97;;
75437;SDS011;64015;49.392;15.582;2023-08-21T10:24:27;6.82;;;6.22;;
75437;SDS011;64015;49.392;15.582;2023-08-21T10:26:58;7.95;;;6.68;;
75437;SDS011;64015;49.392;15.582;2023-08-21T10:29:25;10.55;;;6.88;;
75437;SDS011;64015;49.392;15.582;2023-08-21T10:32:01;28.67;;;14.23;;
75437;SDS011;64015;49.392;15.582;2023-08-21T10:34:37;9.90;;;6.78;;
75437;SDS011;64015;49.392;15.582;2023-08-21T10:37:05;7.63;;;6.45;;
75437;SDS011;64015;49.392;15.582;2023-08-21T10:39:38;9.27;;;6.45;;
75437;SDS011;64015;49.392;15.582;2023-08-21T10:42:18;7.93;;;6.50;;
75437;SDS011;64015;49.392;15.582;2023-08-21T10:47:23;8.35;;;6.95;;
75437;SDS011;64015;49.392;15.582;2023-08-21T10:49:53;10.82;;;6.20;;
75437;SDS011;64015;49.392;15.582;2023-08-21T10:52:21;9.68;;;6.80;;
75437;SDS011;64015;49.392;15.582;2023-08-21T10:54:48;7.40;;;6.65;;
75437;SDS011;64015;49.392;15.582;2023-08-21T10:57:15;8.45;;;6.35;;
75437;SDS011;64015;49.392;15.582;2023-08-21T11:02:17;8.50;;;6.75;;
75437;SDS011;64015;49.392;15.582;2023-08-21T11:04:43;8.70;;;7.05;;
75437;SDS011;64015;49.392;15.582;2023-08-21T11:07:11;9.27;;;6.68;;
75437;SDS011;64015;49.392;15.582;2023-08-21T11:09:38;10.13;;;7.55;;
75437;SDS011;64015;49.392;15.582;2023-08-21T11:12:10;7.07;;;6.38;;
75437;SDS011;64015;49.392;15.582;2023-08-21T11:14:37;9.50;;;7.55;;
75437;SDS011;64015;49.392;15.582;2023-08-21T11:17:04;8.15;;;7.40;;
75437;SDS011;64015;49.392;15.582;2023-08-21T11:19:30;7.93;;;7.05;;
75437;SDS011;64015;49.392;15.582;2023-08-21T11:21:57;7.82;;;7.05;;
75437;SDS011;64015;49.392;15.582;2023-08-21T11:24:29;8.13;;;7.07;;
75437;SDS011;64015;49.392;15.582;2023-08-21T11:27:17;9.30;;;7.25;;
75437;SDS011;64015;49.392;15.582;2023-08-21T11:29:44;8.43;;;6.78;;
75437;SDS011;64015;49.392;15.582;2023-08-21T11:32:15;7.15;;;6.45;;
75437;SDS011;64015;49.392;15.582;2023-08-21T11:37:28;9.55;;;7.55;;
75437;SDS011;64015;49.392;15.582;2023-08-21T11:42:21;10.32;;;7.30;;
75437;SDS011;64015;49.392;15.582;2023-08-21T11:44:50;10.63;;;7.28;;
75437;SDS011;64015;49.392;15.582;2023-08-21T11:47:16;9.52;;;7.90;;
75437;SDS011;64015;49.392;15.582;2023-08-21T11:49:44;8.85;;;7.45;;
75437;SDS011;64015;49.392;15.582;2023-08-21T11:52:12;11.85;;;7.50;;
75437;SDS011;64015;49.392;15.582;2023-08-21T11:54:40;8.45;;;7.28;;
75437;SDS011;64015;49.392;15.582;2023-08-21T11:59:32;8.40;;;6.35;;
75437;SDS011;64015;49.392;15.582;2023-08-21T12:01:58;7.72;;;6.80;;
75437;SDS011;64015;49.392;15.582;2023-08-21T12:04:24;9.00;;;5.90;;
75437;SDS011;64015;49.392;15.582;2023-08-21T12:06:50;9.05;;;7.50;;
75437;SDS011;64015;49.392;15.582;2023-08-21T12:11:44;8.25;;;7.45;;
75437;SDS011;64015;49.392;15.582;2023-08-21T12:16:37;8.65;;;7.20;;
75437;SDS011;64015;49.392;15.582;2023-08-21T12:19:03;9.73;;;8.05;;
75437;SDS011;64015;49.392;15.582;2023-08-21T12:21:29;10.55;;;7.78;;
75437;SDS011;64015;49.392;15.582;2023-08-21T12:23:55;14.20;;;8.88;;
75437;SDS011;64015;49.392;15.582;2023-08-21T12:26:20;11.95;;;10.95;;
75437;SDS011;64015;49.392;15.582;2023-08-21T12:28:47;9.63;;;7.85;;
75437;SDS011;64015;49.392;15.582;2023-08-21T12:31:13;11.57;;;9.70;;
75437;SDS011;64015;49.392;15.582;2023-08-21T12:33:39;11.10;;;10.00;;
75437;SDS011;64015;49.392;15.582;2023-08-21T12:36:05;11.43;;;9.15;;
75437;SDS011;64015;49.392;15.582;2023-08-21T12:38:30;9.98;;;8.85;;
75437;SDS011;64015;49.392;15.582;2023-08-21T12:40:57;8.88;;;8.07;;
75437;SDS011;64015;49.392;15.582;2023-08-21T12:43:23;9.15;;;8.25;;
75437;SDS011;64015;49.392;15.582;2023-08-21T12:45:49;10.32;;;8.95;;
75437;SDS011;64015;49.392;15.582;2023-08-21T12:48:15;14.05;;;9.30;;
75437;SDS011;64015;49.392;15.582;2023-08-21T12:50:40;9.18;;;8.18;;
75437;SDS011;64015;49.392;15.582;2023-08-21T12:53:06;9.55;;;8.45;;
75437;SDS011;64015;49.392;15.582;2023-08-21T12:55:31;9.60;;;7.40;;
75437;SDS011;64015;49.392;15.582;2023-08-21T12:57:57;8.73;;;7.95;;
75437;SDS011;64015;49.392;15.582;2023-08-21T13:00:23;10.43;;;9.45;;
75437;SDS011;64015;49.392;15.582;2023-08-21T13:02:49;8.95;;;8.10;;
75437;SDS011;64015;49.392;15.582;2023-08-21T13:05:14;10.30;;;9.10;;
75437;SDS011;64015;49.392;15.582;2023-08-21T13:07:41;9.93;;;8.93;;
75437;SDS011;64015;49.392;15.582;2023-08-21T13:10:06;9.10;;;8.25;;
75437;SDS011;64015;49.392;15.582;2023-08-21T13:12:33;9.30;;;8.40;;
75437;SDS011;64015;49.392;15.582;2023-08-21T13:14:59;22.73;;;16.85;;
75437;SDS011;64015;49.392;15.582;2023-08-21T13:17:25;40.97;;;27.77;;
75437;SDS011;64015;49.392;15.582;2023-08-21T13:19:51;33.08;;;22.45;;
75437;SDS011;64015;49.392;15.582;2023-08-21T13:22:17;25.60;;;17.80;;
75437;SDS011;64015;49.392;15.582;2023-08-21T13:24:43;42.53;;;24.40;;
75437;SDS011;64015;49.392;15.582;2023-08-21T13:27:09;28.02;;;17.42;;
75437;SDS011;64015;49.392;15.582;2023-08-21T13:29:36;12.20;;;10.90;;
75437;SDS011;64015;49.392;15.582;2023-08-21T13:32:03;12.32;;;10.77;;
75437;SDS011;64015;49.392;15.582;2023-08-21T13:34:29;11.60;;;9.30;;
75437;SDS011;64015;49.392;15.582;2023-08-21T13:36:54;9.73;;;8.77;;
75437;SDS011;64015;49.392;15.582;2023-08-21T13:39:20;9.35;;;8.52;;
75437;SDS011;64015;49.392;15.582;2023-08-21T13:41:48;10.52;;;9.38;;
75437;SDS011;64015;49.392;15.582;2023-08-21T13:44:14;10.18;;;9.23;;
75437;SDS011;64015;49.392;15.582;2023-08-21T13:46:40;11.38;;;8.43;;
75437;SDS011;64015;49.392;15.582;2023-08-21T13:49:05;9.43;;;8.50;;
75437;SDS011;64015;49.392;15.582;2023-08-21T13:51:31;9.57;;;8.57;;
75437;SDS011;64015;49.392;15.582;2023-08-21T13:53:57;9.63;;;8.40;;
75437;SDS011;64015;49.392;15.582;2023-08-21T13:56:23;8.52;;;7.63;;
75437;SDS011;64015;49.392;15.582;2023-08-21T13:58:48;10.18;;;8.57;;
75437;SDS011;64015;49.392;15.582;2023-08-21T14:01:14;9.98;;;7.97;;
75437;SDS011;64015;49.392;15.582;2023-08-21T14:03:40;9.27;;;8.38;;
75437;SDS011;64015;49.392;15.582;2023-08-21T14:06:06;10.40;;;8.25;;
75437;SDS011;64015;49.392;15.582;2023-08-21T14:08:35;10.00;;;8.93;;
75437;SDS011;64015;49.392;15.582;2023-08-21T14:11:01;9.88;;;9.02;;
75437;SDS011;64015;49.392;15.582;2023-08-21T14:13:27;10.43;;;9.00;;
75437;SDS011;64015;49.392;15.582;2023-08-21T14:15:53;10.15;;;9.15;;
75437;SDS011;64015;49.392;15.582;2023-08-21T14:18:19;9.73;;;8.88;;
75437;SDS011;64015;49.392;15.582;2023-08-21T14:20:45;10.32;;;9.07;;
75437;SDS011;64015;49.392;15.582;2023-08-21T14:23:10;9.57;;;8.60;;
75437;SDS011;64015;49.392;15.582;2023-08-21T14:25:36;9.27;;;8.38;;
75437;SDS011;64015;49.392;15.582;2023-08-21T14:28:02;9.15;;;8.38;;
75437;SDS011;64015;49.392;15.582;2023-08-21T14:30:29;9.68;;;8.77;;
75437;SDS011;64015;49.392;15.582;2023-08-21T14:32:54;13.20;;;8.82;;
75437;SDS011;64015;49.392;15.582;2023-08-21T14:35:21;9.93;;;9.13;;
75437;SDS011;64015;49.392;15.582;2023-08-21T14:37:47;9.70;;;8.90;;
75437;SDS011;64015;49.392;15.582;2023-08-21T14:40:12;9.30;;;8.40;;
75437;SDS011;64015;49.392;15.582;2023-08-21T14:42:38;12.73;;;10.00;;
75437;SDS011;64015;49.392;15.582;2023-08-21T14:45:04;9.70;;;8.80;;
75437;SDS011;64015;49.392;15.582;2023-08-21T14:47:31;9.13;;;8.32;;
75437;SDS011;64015;49.392;15.582;2023-08-21T14:49:56;9.05;;;8.15;;
75437;SDS011;64015;49.392;15.582;2023-08-21T14:52:22;10.40;;;8.32;;
75437;SDS011;64015;49.392;15.582;2023-08-21T14:54:50;10.02;;;8.20;;
75437;SDS011;64015;49.392;15.582;2023-08-21T14:57:16;9.75;;;8.82;;
75437;SDS011;64015;49.392;15.582;2023-08-21T14:59:41;9.40;;;8.50;;
75437;SDS011;64015;49.392;15.582;2023-08-21T15:02:08;9.82;;;7.85;;
75437;SDS011;64015;49.392;15.582;2023-08-21T15:04:33;10.27;;;8.90;;
75437;SDS011;64015;49.392;15.582;2023-08-21T15:06:59;7.97;;;7.28;;